Terminal Aerodrome Forecast
Issued by NWS

Home | Current Version | Previous Version | Text Only | Print | Product List | Glossary On
Versions: 1 2 3 4 5 6 7 8 9 10 11 12 13 14 15
000
FTUS45 KRIW 221720
TAFRKS
TAF
KRKS 221720Z 2218/2318 24009KT P6SM SKC
     FM230200 21007KT P6SM VCSH SCT070
     FM230700 VRB05KT P6SM FEW060
     FM231600 24011G17KT P6SM BKN080=

USA.gov is the U.S. government's official web portal to all federal, state and local government web resources and services.